sensor_id;sensor_type;location;lat;lon;timestamp;temperature;humidity
5009;DHT22;2523;51.058;6.922;2022-12-07T00:00:54;5.20;99.90
5009;DHT22;2523;51.058;6.922;2022-12-07T00:03:19;5.20;99.90
5009;DHT22;2523;51.058;6.922;2022-12-07T00:05:45;5.20;99.90
5009;DHT22;2523;51.058;6.922;2022-12-07T00:08:10;5.20;99.90
5009;DHT22;2523;51.058;6.922;2022-12-07T00:10:36;5.20;99.90
5009;DHT22;2523;51.058;6.922;2022-12-07T00:13:01;5.20;99.90
5009;DHT22;2523;51.058;6.922;2022-12-07T00:15:27;5.20;99.90
5009;DHT22;2523;51.058;6.922;2022-12-07T00:17:52;5.20;99.90
5009;DHT22;2523;51.058;6.922;2022-12-07T00:20:18;5.20;99.90
5009;DHT22;2523;51.058;6.922;2022-12-07T00:22:43;5.20;99.90
5009;DHT22;2523;51.058;6.922;2022-12-07T00:25:09;5.20;99.90
5009;DHT22;2523;51.058;6.922;2022-12-07T00:27:34;5.20;99.90
5009;DHT22;2523;51.058;6.922;2022-12-07T00:30:00;5.20;99.90
5009;DHT22;2523;51.058;6.922;2022-12-07T00:32:26;5.20;99.90
5009;DHT22;2523;51.058;6.922;2022-12-07T00:34:51;5.20;99.90
5009;DHT22;2523;51.058;6.922;2022-12-07T00:37:17;5.20;99.90
5009;DHT22;2523;51.058;6.922;2022-12-07T00:39:42;5.20;99.90
5009;DHT22;2523;51.058;6.922;2022-12-07T00:42:08;5.20;99.90
5009;DHT22;2523;51.058;6.922;2022-12-07T00:44:33;5.20;99.90
5009;DHT22;2523;51.058;6.922;2022-12-07T00:46:59;5.20;99.90
5009;DHT22;2523;51.058;6.922;2022-12-07T00:49:24;5.20;99.90
5009;DHT22;2523;51.058;6.922;2022-12-07T00:51:50;5.20;99.90
5009;DHT22;2523;51.058;6.922;2022-12-07T00:54:15;5.20;99.90
5009;DHT22;2523;51.058;6.922;2022-12-07T00:56:41;5.30;99.90
5009;DHT22;2523;51.058;6.922;2022-12-07T00:59:06;5.30;99.90
5009;DHT22;2523;51.058;6.922;2022-12-07T01:01:35;5.30;99.90
5009;DHT22;2523;51.058;6.922;2022-12-07T01:04:01;5.30;99.90
5009;DHT22;2523;51.058;6.922;2022-12-07T01:06:27;5.20;99.90
5009;DHT22;2523;51.058;6.922;2022-12-07T01:08:53;5.20;99.90
5009;DHT22;2523;51.058;6.922;2022-12-07T01:11:21;5.20;99.90
5009;DHT22;2523;51.058;6.922;2022-12-07T01:13:50;5.20;99.90
5009;DHT22;2523;51.058;6.922;2022-12-07T01:16:17;5.20;99.90
5009;DHT22;2523;51.058;6.922;2022-12-07T01:18:46;5.20;99.90
5009;DHT22;2523;51.058;6.922;2022-12-07T01:21:14;5.30;99.90
5009;DHT22;2523;51.058;6.922;2022-12-07T01:23:40;5.30;99.90
5009;DHT22;2523;51.058;6.922;2022-12-07T01:26:10;5.30;99.90
5009;DHT22;2523;51.058;6.922;2022-12-07T01:28:36;5.30;99.90
5009;DHT22;2523;51.058;6.922;2022-12-07T01:31:04;5.20;99.90
5009;DHT22;2523;51.058;6.922;2022-12-07T01:33:32;5.30;99.90
5009;DHT22;2523;51.058;6.922;2022-12-07T01:36:07;5.30;99.90
5009;DHT22;2523;51.058;6.922;2022-12-07T01:38:33;5.20;99.90
5009;DHT22;2523;51.058;6.922;2022-12-07T01:41:00;5.30;99.90
5009;DHT22;2523;51.058;6.922;2022-12-07T01:43:29;5.20;99.90
5009;DHT22;2523;51.058;6.922;2022-12-07T01:45:55;5.20;99.90
5009;DHT22;2523;51.058;6.922;2022-12-07T01:48:26;5.20;99.90
5009;DHT22;2523;51.058;6.922;2022-12-07T01:50:55;5.20;99.90
5009;DHT22;2523;51.058;6.922;2022-12-07T01:53:25;5.30;99.90
5009;DHT22;2523;51.058;6.922;2022-12-07T01:55:53;5.20;99.90
5009;DHT22;2523;51.058;6.922;2022-12-07T01:58:20;5.20;99.90
5009;DHT22;2523;51.058;6.922;2022-12-07T02:00:46;5.20;99.90
5009;DHT22;2523;51.058;6.922;2022-12-07T02:03:19;5.20;99.90
5009;DHT22;2523;51.058;6.922;2022-12-07T02:05:48;5.20;99.90
5009;DHT22;2523;51.058;6.922;2022-12-07T02:08:14;5.20;99.90
5009;DHT22;2523;51.058;6.922;2022-12-07T02:10:40;5.20;99.90
5009;DHT22;2523;51.058;6.922;2022-12-07T02:13:13;5.20;99.90
5009;DHT22;2523;51.058;6.922;2022-12-07T02:21:36;5.20;99.90
5009;DHT22;2523;51.058;6.922;2022-12-07T02:24:11;5.20;99.90
5009;DHT22;2523;51.058;6.922;2022-12-07T02:29:47;5.20;99.90
5009;DHT22;2523;51.058;6.922;2022-12-07T02:32:27;5.20;99.90
5009;DHT22;2523;51.058;6.922;2022-12-07T02:40:21;5.20;99.90
5009;DHT22;2523;51.058;6.922;2022-12-07T02:42:53;5.20;99.90
5009;DHT22;2523;51.058;6.922;2022-12-07T02:45:22;5.20;99.90
5009;DHT22;2523;51.058;6.922;2022-12-07T02:47:51;5.20;99.90
5009;DHT22;2523;51.058;6.922;2022-12-07T02:50:21;5.20;99.90
5009;DHT22;2523;51.058;6.922;2022-12-07T02:52:47;5.20;99.90
5009;DHT22;2523;51.058;6.922;2022-12-07T02:55:15;5.20;99.90
5009;DHT22;2523;51.058;6.922;2022-12-07T02:58:07;5.20;99.90
5009;DHT22;2523;51.058;6.922;2022-12-07T03:00:48;5.30;99.90
5009;DHT22;2523;51.058;6.922;2022-12-07T03:03:17;5.30;99.90
5009;DHT22;2523;51.058;6.922;2022-12-07T03:06:16;5.30;99.90
5009;DHT22;2523;51.058;6.922;2022-12-07T03:08:57;5.30;99.90
5009;DHT22;2523;51.058;6.922;2022-12-07T03:11:32;5.30;99.90
5009;DHT22;2523;51.058;6.922;2022-12-07T03:14:45;5.30;99.90
5009;DHT22;2523;51.058;6.922;2022-12-07T03:17:36;5.30;99.90
5009;DHT22;2523;51.058;6.922;2022-12-07T03:19:43;5.30;99.90
5009;DHT22;2523;51.058;6.922;2022-12-07T03:22:12;5.30;99.90
5009;DHT22;2523;51.058;6.922;2022-12-07T03:24:54;5.30;99.90
5009;DHT22;2523;51.058;6.922;2022-12-07T03:27:23;5.30;99.90
5009;DHT22;2523;51.058;6.922;2022-12-07T03:30:06;5.30;99.90
5009;DHT22;2523;51.058;6.922;2022-12-07T03:32:53;5.30;99.90
5009;DHT22;2523;51.058;6.922;2022-12-07T03:35:42;5.30;99.90
5009;DHT22;2523;51.058;6.922;2022-12-07T03:38:22;5.40;99.90
5009;DHT22;2523;51.058;6.922;2022-12-07T03:41:09;5.30;99.90
5009;DHT22;2523;51.058;6.922;2022-12-07T03:43:37;5.40;99.90
5009;DHT22;2523;51.058;6.922;2022-12-07T03:48:52;5.40;99.90
5009;DHT22;2523;51.058;6.922;2022-12-07T03:51:25;5.30;99.90
5009;DHT22;2523;51.058;6.922;2022-12-07T03:53:57;5.40;99.90
5009;DHT22;2523;51.058;6.922;2022-12-07T03:56:25;5.30;99.90
5009;DHT22;2523;51.058;6.922;2022-12-07T03:58:52;5.30;99.90
5009;DHT22;2523;51.058;6.922;2022-12-07T04:01:18;5.30;99.90
5009;DHT22;2523;51.058;6.922;2022-12-07T04:03:43;5.30;99.90
5009;DHT22;2523;51.058;6.922;2022-12-07T04:06:09;5.30;99.90
5009;DHT22;2523;51.058;6.922;2022-12-07T04:08:34;5.30;99.90
5009;DHT22;2523;51.058;6.922;2022-12-07T04:11:01;5.20;99.90
5009;DHT22;2523;51.058;6.922;2022-12-07T04:13:26;5.20;99.90
5009;DHT22;2523;51.058;6.922;2022-12-07T04:15:52;5.20;99.90
5009;DHT22;2523;51.058;6.922;2022-12-07T04:18:17;5.20;99.90
5009;DHT22;2523;51.058;6.922;2022-12-07T04:20:43;5.20;99.90
5009;DHT22;2523;51.058;6.922;2022-12-07T04:23:08;5.10;99.90
5009;DHT22;2523;51.058;6.922;2022-12-07T04:25:34;5.20;99.90
5009;DHT22;2523;51.058;6.922;2022-12-07T04:27:59;5.20;99.90
5009;DHT22;2523;51.058;6.922;2022-12-07T04:30:25;5.20;99.90
5009;DHT22;2523;51.058;6.922;2022-12-07T04:32:50;5.20;99.90
5009;DHT22;2523;51.058;6.922;2022-12-07T04:35:16;5.20;99.90
5009;DHT22;2523;51.058;6.922;2022-12-07T04:37:41;5.20;99.90
5009;DHT22;2523;51.058;6.922;2022-12-07T04:40:08;5.10;99.90
5009;DHT22;2523;51.058;6.922;2022-12-07T04:42:36;5.10;99.90
5009;DHT22;2523;51.058;6.922;2022-12-07T04:45:02;5.10;99.90
5009;DHT22;2523;51.058;6.922;2022-12-07T04:47:27;5.10;99.90
5009;DHT22;2523;51.058;6.922;2022-12-07T04:49:53;5.00;99.90
5009;DHT22;2523;51.058;6.922;2022-12-07T04:52:18;5.00;99.90
5009;DHT22;2523;51.058;6.922;2022-12-07T04:54:44;5.10;99.90
5009;DHT22;2523;51.058;6.922;2022-12-07T04:57:09;5.00;99.90
5009;DHT22;2523;51.058;6.922;2022-12-07T04:59:35;5.00;99.90
5009;DHT22;2523;51.058;6.922;2022-12-07T05:02:00;5.00;99.90
5009;DHT22;2523;51.058;6.922;2022-12-07T05:04:26;5.00;99.90
5009;DHT22;2523;51.058;6.922;2022-12-07T05:06:51;5.00;99.90
5009;DHT22;2523;51.058;6.922;2022-12-07T05:09:17;5.00;99.90
5009;DHT22;2523;51.058;6.922;2022-12-07T05:11:43;5.00;99.90
5009;DHT22;2523;51.058;6.922;2022-12-07T05:14:18;5.00;99.90
5009;DHT22;2523;51.058;6.922;2022-12-07T05:16:46;5.10;99.90
5009;DHT22;2523;51.058;6.922;2022-12-07T05:19:12;5.00;99.90
5009;DHT22;2523;51.058;6.922;2022-12-07T05:21:38;5.00;99.90
5009;DHT22;2523;51.058;6.922;2022-12-07T05:24:05;5.10;99.90
5009;DHT22;2523;51.058;6.922;2022-12-07T05:26:31;5.10;99.90
5009;DHT22;2523;51.058;6.922;2022-12-07T05:28:57;5.10;99.90
5009;DHT22;2523;51.058;6.922;2022-12-07T05:31:24;5.10;99.90
5009;DHT22;2523;51.058;6.922;2022-12-07T05:33:49;5.10;99.90
5009;DHT22;2523;51.058;6.922;2022-12-07T05:36:15;5.10;99.90
5009;DHT22;2523;51.058;6.922;2022-12-07T05:38:41;5.10;99.90
5009;DHT22;2523;51.058;6.922;2022-12-07T05:41:08;5.00;99.90
5009;DHT22;2523;51.058;6.922;2022-12-07T05:43:57;4.90;99.90
5009;DHT22;2523;51.058;6.922;2022-12-07T05:46:22;4.90;99.90
5009;DHT22;2523;51.058;6.922;2022-12-07T05:48:48;4.90;99.90
5009;DHT22;2523;51.058;6.922;2022-12-07T05:51:13;4.90;99.90
5009;DHT22;2523;51.058;6.922;2022-12-07T05:53:39;4.90;99.90
5009;DHT22;2523;51.058;6.922;2022-12-07T05:56:04;4.90;99.90
5009;DHT22;2523;51.058;6.922;2022-12-07T05:58:30;4.90;99.90
5009;DHT22;2523;51.058;6.922;2022-12-07T06:01:14;4.90;99.90
5009;DHT22;2523;51.058;6.922;2022-12-07T06:03:40;4.80;99.90
5009;DHT22;2523;51.058;6.922;2022-12-07T06:06:05;4.80;99.90
5009;DHT22;2523;51.058;6.922;2022-12-07T06:08:31;4.70;99.90
5009;DHT22;2523;51.058;6.922;2022-12-07T06:10:56;4.70;99.90
5009;DHT22;2523;51.058;6.922;2022-12-07T06:13:57;4.70;99.90
5009;DHT22;2523;51.058;6.922;2022-12-07T06:16:22;4.70;99.90
5009;DHT22;2523;51.058;6.922;2022-12-07T06:18:48;4.60;99.90
5009;DHT22;2523;51.058;6.922;2022-12-07T06:21:13;4.60;99.90
5009;DHT22;2523;51.058;6.922;2022-12-07T06:23:39;4.60;99.90
5009;DHT22;2523;51.058;6.922;2022-12-07T06:26:05;4.60;99.90
5009;DHT22;2523;51.058;6.922;2022-12-07T06:28:30;4.60;99.90
5009;DHT22;2523;51.058;6.922;2022-12-07T06:30:59;4.60;99.90
5009;DHT22;2523;51.058;6.922;2022-12-07T06:33:26;4.60;99.90
5009;DHT22;2523;51.058;6.922;2022-12-07T06:35:52;4.60;99.90
5009;DHT22;2523;51.058;6.922;2022-12-07T06:38:17;4.60;99.90
5009;DHT22;2523;51.058;6.922;2022-12-07T06:40:43;4.70;99.90
5009;DHT22;2523;51.058;6.922;2022-12-07T06:43:08;4.70;99.90
5009;DHT22;2523;51.058;6.922;2022-12-07T06:45:34;4.70;99.90
5009;DHT22;2523;51.058;6.922;2022-12-07T06:47:59;4.80;99.90
5009;DHT22;2523;51.058;6.922;2022-12-07T06:50:25;4.80;99.90
5009;DHT22;2523;51.058;6.922;2022-12-07T06:52:51;4.80;99.90
5009;DHT22;2523;51.058;6.922;2022-12-07T06:55:17;4.80;99.90
5009;DHT22;2523;51.058;6.922;2022-12-07T06:57:43;4.80;99.90
5009;DHT22;2523;51.058;6.922;2022-12-07T07:00:09;4.70;99.90
5009;DHT22;2523;51.058;6.922;2022-12-07T07:02:34;4.70;99.90
5009;DHT22;2523;51.058;6.922;2022-12-07T07:05:00;4.70;99.90
5009;DHT22;2523;51.058;6.922;2022-12-07T07:07:25;4.60;99.90
5009;DHT22;2523;51.058;6.922;2022-12-07T07:09:51;4.70;99.90
5009;DHT22;2523;51.058;6.922;2022-12-07T07:12:16;4.60;99.90
5009;DHT22;2523;51.058;6.922;2022-12-07T07:14:42;4.60;99.90
5009;DHT22;2523;51.058;6.922;2022-12-07T07:17:08;4.60;99.90
5009;DHT22;2523;51.058;6.922;2022-12-07T07:19:34;4.60;99.90
5009;DHT22;2523;51.058;6.922;2022-12-07T07:21:59;4.70;99.90
5009;DHT22;2523;51.058;6.922;2022-12-07T07:24:25;4.70;99.90
5009;DHT22;2523;51.058;6.922;2022-12-07T07:26:50;4.60;99.90
5009;DHT22;2523;51.058;6.922;2022-12-07T07:29:16;4.60;99.90
5009;DHT22;2523;51.058;6.922;2022-12-07T07:31:41;4.60;99.90
5009;DHT22;2523;51.058;6.922;2022-12-07T07:34:07;4.60;99.90
5009;DHT22;2523;51.058;6.922;2022-12-07T07:36:32;4.60;99.90
5009;DHT22;2523;51.058;6.922;2022-12-07T07:38:58;4.60;99.90
5009;DHT22;2523;51.058;6.922;2022-12-07T07:41:23;4.60;99.90
5009;DHT22;2523;51.058;6.922;2022-12-07T07:43:49;4.70;99.90
5009;DHT22;2523;51.058;6.922;2022-12-07T07:46:14;4.70;99.90
5009;DHT22;2523;51.058;6.922;2022-12-07T07:48:40;4.70;99.90
5009;DHT22;2523;51.058;6.922;2022-12-07T07:51:07;4.70;99.90
5009;DHT22;2523;51.058;6.922;2022-12-07T07:53:32;4.70;99.90
5009;DHT22;2523;51.058;6.922;2022-12-07T07:55:58;4.70;99.90
5009;DHT22;2523;51.058;6.922;2022-12-07T07:58:24;4.70;99.90
5009;DHT22;2523;51.058;6.922;2022-12-07T08:00:49;4.70;99.90
5009;DHT22;2523;51.058;6.922;2022-12-07T08:03:15;4.80;99.90
5009;DHT22;2523;51.058;6.922;2022-12-07T08:05:40;4.80;99.90
5009;DHT22;2523;51.058;6.922;2022-12-07T08:08:06;4.80;99.90
5009;DHT22;2523;51.058;6.922;2022-12-07T08:10:31;4.80;99.90
5009;DHT22;2523;51.058;6.922;2022-12-07T08:12:58;4.90;99.90
5009;DHT22;2523;51.058;6.922;2022-12-07T08:15:37;4.90;99.90
5009;DHT22;2523;51.058;6.922;2022-12-07T08:18:03;4.90;99.90
5009;DHT22;2523;51.058;6.922;2022-12-07T08:20:30;4.90;99.90
5009;DHT22;2523;51.058;6.922;2022-12-07T08:22:57;4.90;99.90
5009;DHT22;2523;51.058;6.922;2022-12-07T08:25:22;4.90;99.90
5009;DHT22;2523;51.058;6.922;2022-12-07T08:27:48;4.90;99.90
5009;DHT22;2523;51.058;6.922;2022-12-07T08:30:14;4.90;99.90
5009;DHT22;2523;51.058;6.922;2022-12-07T08:32:40;4.90;99.90
5009;DHT22;2523;51.058;6.922;2022-12-07T08:35:05;4.90;99.90
5009;DHT22;2523;51.058;6.922;2022-12-07T08:37:31;5.00;99.90
5009;DHT22;2523;51.058;6.922;2022-12-07T08:39:57;5.10;99.90
5009;DHT22;2523;51.058;6.922;2022-12-07T08:42:23;5.10;99.90
5009;DHT22;2523;51.058;6.922;2022-12-07T08:44:53;5.10;99.90
5009;DHT22;2523;51.058;6.922;2022-12-07T08:47:18;5.10;99.90
5009;DHT22;2523;51.058;6.922;2022-12-07T08:49:46;5.10;99.90
5009;DHT22;2523;51.058;6.922;2022-12-07T08:52:13;5.20;99.90
5009;DHT22;2523;51.058;6.922;2022-12-07T08:54:39;5.20;99.90
5009;DHT22;2523;51.058;6.922;2022-12-07T08:57:06;5.30;99.90
5009;DHT22;2523;51.058;6.922;2022-12-07T08:59:33;5.30;99.90
5009;DHT22;2523;51.058;6.922;2022-12-07T09:01:59;5.40;99.90
5009;DHT22;2523;51.058;6.922;2022-12-07T09:04:25;5.50;99.90
5009;DHT22;2523;51.058;6.922;2022-12-07T09:06:50;5.60;99.90
5009;DHT22;2523;51.058;6.922;2022-12-07T09:09:16;5.60;99.90
5009;DHT22;2523;51.058;6.922;2022-12-07T09:11:42;5.60;99.90
5009;DHT22;2523;51.058;6.922;2022-12-07T09:14:07;5.60;99.90
5009;DHT22;2523;51.058;6.922;2022-12-07T09:16:33;5.60;99.90
5009;DHT22;2523;51.058;6.922;2022-12-07T09:18:58;5.70;99.90
5009;DHT22;2523;51.058;6.922;2022-12-07T09:21:24;5.70;99.90
5009;DHT22;2523;51.058;6.922;2022-12-07T09:23:49;5.60;99.90
5009;DHT22;2523;51.058;6.922;2022-12-07T09:26:15;5.60;99.90
5009;DHT22;2523;51.058;6.922;2022-12-07T09:28:40;5.60;99.90
5009;DHT22;2523;51.058;6.922;2022-12-07T09:31:06;5.60;99.90
5009;DHT22;2523;51.058;6.922;2022-12-07T09:33:31;5.60;99.90
5009;DHT22;2523;51.058;6.922;2022-12-07T09:35:58;5.80;99.90
5009;DHT22;2523;51.058;6.922;2022-12-07T09:38:23;5.90;99.90
5009;DHT22;2523;51.058;6.922;2022-12-07T09:40:53;6.10;99.90
5009;DHT22;2523;51.058;6.922;2022-12-07T09:43:24;6.10;99.90
5009;DHT22;2523;51.058;6.922;2022-12-07T09:45:52;6.10;99.90
5009;DHT22;2523;51.058;6.922;2022-12-07T09:48:39;6.20;99.90
5009;DHT22;2523;51.058;6.922;2022-12-07T09:51:20;6.20;99.90
5009;DHT22;2523;51.058;6.922;2022-12-07T09:53:46;6.20;99.90
5009;DHT22;2523;51.058;6.922;2022-12-07T09:56:14;6.20;99.90
5009;DHT22;2523;51.058;6.922;2022-12-07T09:58:40;6.10;99.90
5009;DHT22;2523;51.058;6.922;2022-12-07T10:03:38;6.10;99.90
5009;DHT22;2523;51.058;6.922;2022-12-07T10:06:05;6.10;99.90
5009;DHT22;2523;51.058;6.922;2022-12-07T10:08:31;6.10;99.90
5009;DHT22;2523;51.058;6.922;2022-12-07T10:10:57;6.10;99.90
5009;DHT22;2523;51.058;6.922;2022-12-07T10:13:36;6.10;99.90
5009;DHT22;2523;51.058;6.922;2022-12-07T10:16:02;6.00;99.90
5009;DHT22;2523;51.058;6.922;2022-12-07T10:18:33;6.10;99.90
5009;DHT22;2523;51.058;6.922;2022-12-07T10:21:09;6.10;99.90
5009;DHT22;2523;51.058;6.922;2022-12-07T10:23:37;6.10;99.90
5009;DHT22;2523;51.058;6.922;2022-12-07T10:26:32;6.10;99.90
5009;DHT22;2523;51.058;6.922;2022-12-07T10:29:00;6.10;99.90
5009;DHT22;2523;51.058;6.922;2022-12-07T10:31:28;6.10;99.90
5009;DHT22;2523;51.058;6.922;2022-12-07T10:33:56;6.10;99.90
5009;DHT22;2523;51.058;6.922;2022-12-07T10:39:11;6.30;99.90
5009;DHT22;2523;51.058;6.922;2022-12-07T10:41:57;6.40;99.90
5009;DHT22;2523;51.058;6.922;2022-12-07T10:44:29;6.50;99.90
5009;DHT22;2523;51.058;6.922;2022-12-07T10:52:42;6.50;99.90
5009;DHT22;2523;51.058;6.922;2022-12-07T11:01:04;6.50;99.90
5009;DHT22;2523;51.058;6.922;2022-12-07T11:03:36;6.50;99.90
5009;DHT22;2523;51.058;6.922;2022-12-07T11:11:55;6.50;99.90
5009;DHT22;2523;51.058;6.922;2022-12-07T11:14:52;6.60;99.90
5009;DHT22;2523;51.058;6.922;2022-12-07T11:17:20;6.60;99.90
5009;DHT22;2523;51.058;6.922;2022-12-07T11:20:01;6.70;99.90
5009;DHT22;2523;51.058;6.922;2022-12-07T11:22:45;6.80;99.90
5009;DHT22;2523;51.058;6.922;2022-12-07T11:25:17;6.80;99.90
5009;DHT22;2523;51.058;6.922;2022-12-07T11:33:47;6.50;99.90
5009;DHT22;2523;51.058;6.922;2022-12-07T11:36:31;6.60;99.90
5009;DHT22;2523;51.058;6.922;2022-12-07T11:39:01;6.70;99.90
5009;DHT22;2523;51.058;6.922;2022-12-07T11:41:31;7.10;99.90
5009;DHT22;2523;51.058;6.922;2022-12-07T11:44:22;7.40;99.90
5009;DHT22;2523;51.058;6.922;2022-12-07T11:47:02;8.00;99.90
5009;DHT22;2523;51.058;6.922;2022-12-07T11:49:45;8.20;99.90
5009;DHT22;2523;51.058;6.922;2022-12-07T11:52:25;8.00;99.90
5009;DHT22;2523;51.058;6.922;2022-12-07T11:54:53;7.60;99.90
5009;DHT22;2523;51.058;6.922;2022-12-07T11:57:38;7.50;99.90
5009;DHT22;2523;51.058;6.922;2022-12-07T12:00:13;7.30;99.90
5009;DHT22;2523;51.058;6.922;2022-12-07T12:03:03;7.30;99.90
5009;DHT22;2523;51.058;6.922;2022-12-07T12:05:30;7.60;99.90
5009;DHT22;2523;51.058;6.922;2022-12-07T12:08:20;8.00;99.90
5009;DHT22;2523;51.058;6.922;2022-12-07T12:16:28;8.00;99.90
5009;DHT22;2523;51.058;6.922;2022-12-07T12:21:42;7.90;99.90
5009;DHT22;2523;51.058;6.922;2022-12-07T12:24:17;7.90;99.90
5009;DHT22;2523;51.058;6.922;2022-12-07T12:26:53;7.90;99.90
5009;DHT22;2523;51.058;6.922;2022-12-07T12:29:34;8.10;99.90
5009;DHT22;2523;51.058;6.922;2022-12-07T12:32:20;8.70;99.90
5009;DHT22;2523;51.058;6.922;2022-12-07T12:35:00;9.00;99.90
5009;DHT22;2523;51.058;6.922;2022-12-07T12:37:46;8.70;99.90
5009;DHT22;2523;51.058;6.922;2022-12-07T12:42:51;8.10;99.90
5009;DHT22;2523;51.058;6.922;2022-12-07T12:45:26;7.90;99.90
5009;DHT22;2523;51.058;6.922;2022-12-07T12:50:29;7.80;99.90
5009;DHT22;2523;51.058;6.922;2022-12-07T12:53:02;7.80;99.90
5009;DHT22;2523;51.058;6.922;2022-12-07T13:00:45;8.10;99.90
5009;DHT22;2523;51.058;6.922;2022-12-07T13:03:29;8.70;99.90
5009;DHT22;2523;51.058;6.922;2022-12-07T13:06:47;9.40;99.90
5009;DHT22;2523;51.058;6.922;2022-12-07T13:09:22;10.00;99.90
5009;DHT22;2523;51.058;6.922;2022-12-07T13:11:49;10.00;99.90
5009;DHT22;2523;51.058;6.922;2022-12-07T13:14:56;9.50;99.90
5009;DHT22;2523;51.058;6.922;2022-12-07T13:20:07;8.70;99.90
5009;DHT22;2523;51.058;6.922;2022-12-07T13:25:22;7.70;99.90
5009;DHT22;2523;51.058;6.922;2022-12-07T13:27:59;7.40;99.90
5009;DHT22;2523;51.058;6.922;2022-12-07T13:30:26;7.10;99.90
5009;DHT22;2523;51.058;6.922;2022-12-07T13:32:58;7.00;99.90
5009;DHT22;2523;51.058;6.922;2022-12-07T13:35:34;6.90;99.90
5009;DHT22;2523;51.058;6.922;2022-12-07T13:38:03;6.80;99.90
5009;DHT22;2523;51.058;6.922;2022-12-07T13:40:29;6.70;99.90
5009;DHT22;2523;51.058;6.922;2022-12-07T13:43:00;6.60;99.90
5009;DHT22;2523;51.058;6.922;2022-12-07T13:45:31;6.60;99.90
5009;DHT22;2523;51.058;6.922;2022-12-07T13:48:32;6.60;99.90
5009;DHT22;2523;51.058;6.922;2022-12-07T13:50:59;6.60;99.90
5009;DHT22;2523;51.058;6.922;2022-12-07T13:53:26;6.60;99.90
5009;DHT22;2523;51.058;6.922;2022-12-07T13:55:56;6.60;99.90
5009;DHT22;2523;51.058;6.922;2022-12-07T13:58:22;6.60;99.90
5009;DHT22;2523;51.058;6.922;2022-12-07T14:00:48;6.60;99.90
5009;DHT22;2523;51.058;6.922;2022-12-07T14:05:41;6.60;99.90
5009;DHT22;2523;51.058;6.922;2022-12-07T14:10:39;6.60;99.90
5009;DHT22;2523;51.058;6.922;2022-12-07T14:13:38;6.50;99.90
5009;DHT22;2523;51.058;6.922;2022-12-07T14:16:19;6.50;99.90
5009;DHT22;2523;51.058;6.922;2022-12-07T14:18:47;6.50;99.90
5009;DHT22;2523;51.058;6.922;2022-12-07T14:23:39;6.50;99.90
5009;DHT22;2523;51.058;6.922;2022-12-07T14:26:19;6.50;99.90
5009;DHT22;2523;51.058;6.922;2022-12-07T14:28:46;6.50;99.90
5009;DHT22;2523;51.058;6.922;2022-12-07T14:31:17;6.40;99.90
5009;DHT22;2523;51.058;6.922;2022-12-07T14:33:45;6.40;99.90
5009;DHT22;2523;51.058;6.922;2022-12-07T14:36:11;6.40;99.90
5009;DHT22;2523;51.058;6.922;2022-12-07T14:38:37;6.40;99.90
5009;DHT22;2523;51.058;6.922;2022-12-07T14:41:04;6.40;99.90
5009;DHT22;2523;51.058;6.922;2022-12-07T14:43:50;6.40;99.90
5009;DHT22;2523;51.058;6.922;2022-12-07T14:46:15;6.40;99.90
5009;DHT22;2523;51.058;6.922;2022-12-07T14:48:41;6.40;99.90
5009;DHT22;2523;51.058;6.922;2022-12-07T14:51:08;6.40;99.90
5009;DHT22;2523;51.058;6.922;2022-12-07T14:53:42;6.40;99.90
5009;DHT22;2523;51.058;6.922;2022-12-07T14:56:09;6.40;99.90
5009;DHT22;2523;51.058;6.922;2022-12-07T14:58:34;6.40;99.90
5009;DHT22;2523;51.058;6.922;2022-12-07T15:01:00;6.40;99.90
5009;DHT22;2523;51.058;6.922;2022-12-07T15:03:26;6.40;99.90
5009;DHT22;2523;51.058;6.922;2022-12-07T15:05:52;6.30;99.90
5009;DHT22;2523;51.058;6.922;2022-12-07T15:08:17;6.30;99.90
5009;DHT22;2523;51.058;6.922;2022-12-07T15:10:43;6.30;99.90
5009;DHT22;2523;51.058;6.922;2022-12-07T15:13:08;6.30;99.90
5009;DHT22;2523;51.058;6.922;2022-12-07T15:15:53;6.30;99.90
5009;DHT22;2523;51.058;6.922;2022-12-07T15:18:20;6.30;99.90
5009;DHT22;2523;51.058;6.922;2022-12-07T15:20:46;6.20;99.90
5009;DHT22;2523;51.058;6.922;2022-12-07T15:23:12;6.20;99.90
5009;DHT22;2523;51.058;6.922;2022-12-07T15:25:45;6.10;99.90
5009;DHT22;2523;51.058;6.922;2022-12-07T15:28:11;6.00;99.90
5009;DHT22;2523;51.058;6.922;2022-12-07T15:30:38;5.90;99.90
5009;DHT22;2523;51.058;6.922;2022-12-07T15:33:05;5.80;99.90
5009;DHT22;2523;51.058;6.922;2022-12-07T15:35:30;5.80;99.90
5009;DHT22;2523;51.058;6.922;2022-12-07T15:37:56;5.70;99.90
5009;DHT22;2523;51.058;6.922;2022-12-07T15:40:21;5.60;99.90
5009;DHT22;2523;51.058;6.922;2022-12-07T15:42:47;5.50;99.90
5009;DHT22;2523;51.058;6.922;2022-12-07T15:45:12;5.50;99.90
5009;DHT22;2523;51.058;6.922;2022-12-07T15:47:43;5.50;99.90
5009;DHT22;2523;51.058;6.922;2022-12-07T15:50:13;5.40;99.90
5009;DHT22;2523;51.058;6.922;2022-12-07T15:52:39;5.40;99.90
5009;DHT22;2523;51.058;6.922;2022-12-07T15:55:06;5.30;99.90
5009;DHT22;2523;51.058;6.922;2022-12-07T15:57:32;5.30;99.90
5009;DHT22;2523;51.058;6.922;2022-12-07T15:59:58;5.20;99.90
5009;DHT22;2523;51.058;6.922;2022-12-07T16:02:24;5.20;99.90
5009;DHT22;2523;51.058;6.922;2022-12-07T16:04:51;5.10;99.90
5009;DHT22;2523;51.058;6.922;2022-12-07T16:07:17;5.10;99.90
5009;DHT22;2523;51.058;6.922;2022-12-07T16:09:44;5.10;99.90
5009;DHT22;2523;51.058;6.922;2022-12-07T16:12:10;5.10;99.90
5009;DHT22;2523;51.058;6.922;2022-12-07T16:14:36;5.10;99.90
5009;DHT22;2523;51.058;6.922;2022-12-07T16:17:01;5.10;99.90
5009;DHT22;2523;51.058;6.922;2022-12-07T16:19:28;5.10;99.90
5009;DHT22;2523;51.058;6.922;2022-12-07T16:21:53;5.10;99.90
5009;DHT22;2523;51.058;6.922;2022-12-07T16:24:19;5.20;99.90
5009;DHT22;2523;51.058;6.922;2022-12-07T16:26:44;5.20;99.90
5009;DHT22;2523;51.058;6.922;2022-12-07T16:29:14;5.20;99.90
5009;DHT22;2523;51.058;6.922;2022-12-07T16:31:40;5.20;99.90
5009;DHT22;2523;51.058;6.922;2022-12-07T16:34:06;5.20;99.90
5009;DHT22;2523;51.058;6.922;2022-12-07T16:36:32;5.20;99.90
5009;DHT22;2523;51.058;6.922;2022-12-07T16:39:01;5.20;99.90
5009;DHT22;2523;51.058;6.922;2022-12-07T16:41:27;5.20;99.90
5009;DHT22;2523;51.058;6.922;2022-12-07T16:43:52;5.20;99.90
5009;DHT22;2523;51.058;6.922;2022-12-07T16:46:18;5.20;99.90
5009;DHT22;2523;51.058;6.922;2022-12-07T16:48:44;5.20;99.90
5009;DHT22;2523;51.058;6.922;2022-12-07T16:51:11;5.20;99.90
5009;DHT22;2523;51.058;6.922;2022-12-07T16:53:38;5.20;99.90
5009;DHT22;2523;51.058;6.922;2022-12-07T16:56:09;5.20;99.90
5009;DHT22;2523;51.058;6.922;2022-12-07T16:58:34;5.20;99.90
5009;DHT22;2523;51.058;6.922;2022-12-07T17:01:09;5.20;99.90
5009;DHT22;2523;51.058;6.922;2022-12-07T17:03:35;5.20;99.90
5009;DHT22;2523;51.058;6.922;2022-12-07T17:06:01;5.20;99.90
5009;DHT22;2523;51.058;6.922;2022-12-07T17:08:26;5.20;99.90
5009;DHT22;2523;51.058;6.922;2022-12-07T17:10:52;5.20;99.90
5009;DHT22;2523;51.058;6.922;2022-12-07T17:13:17;5.20;99.90
5009;DHT22;2523;51.058;6.922;2022-12-07T17:16:04;5.20;99.90
5009;DHT22;2523;51.058;6.922;2022-12-07T17:18:32;5.20;99.90
5009;DHT22;2523;51.058;6.922;2022-12-07T17:21:06;5.20;99.90
5009;DHT22;2523;51.058;6.922;2022-12-07T17:23:33;5.20;99.90
5009;DHT22;2523;51.058;6.922;2022-12-07T17:26:07;5.20;99.90
5009;DHT22;2523;51.058;6.922;2022-12-07T17:28:33;5.20;99.90
5009;DHT22;2523;51.058;6.922;2022-12-07T17:30:59;5.20;99.90
5009;DHT22;2523;51.058;6.922;2022-12-07T17:33:24;5.20;99.90
5009;DHT22;2523;51.058;6.922;2022-12-07T17:35:50;5.10;99.90
5009;DHT22;2523;51.058;6.922;2022-12-07T17:38:15;5.20;99.90
5009;DHT22;2523;51.058;6.922;2022-12-07T17:40:41;5.20;99.90
5009;DHT22;2523;51.058;6.922;2022-12-07T17:43:06;5.20;99.90
5009;DHT22;2523;51.058;6.922;2022-12-07T17:45:32;5.10;99.90
5009;DHT22;2523;51.058;6.922;2022-12-07T17:47:57;5.10;99.90